Time;durP1;ratioP1;P1;durP2;ratioP2;P2;SDS_P1;SDS_P2;PMS_P1;PMS_P2;Temp;Humidity;BMP_temperature;BMP_pressure;BME280_temperature;BME280_humidity;BME280_pressure;Samples;Min_cycle;Max_cycle;Signal;HPM_P1;HPM_P2
2021/12/01 00:00:42;;;;;;;9.57;3.08;;;;;;;;;;4245385;27;20051;-80
2021/12/01 00:02:43;;;;;;;9.43;3.42;;;;;;;;;;4245707;27;20054;-81
2021/12/01 00:04:45;;;;;;;11.82;4.05;;;;;;;;;;4213794;28;20044;-80
2021/12/01 00:06:46;;;;;;;9.57;3.65;;;;;;;;;;4229673;28;20514;-80
2021/12/01 00:08:47;;;;;;;9.50;3.75;;;;;;;;;;4231877;28;20127;-80
2021/12/01 00:10:48;;;;;;;11.30;3.60;;;;;;;;;;4231253;28;20078;-81
2021/12/01 00:12:49;;;;;;;13.85;3.97;;;;;;;;;;4231484;27;20050;-79
2021/12/01 00:14:50;;;;;;;12.45;4.40;;;;;;;;;;4248192;27;20122;-80
2021/12/01 00:16:52;;;;;;;10.55;3.75;;;;;;;;;;4247135;27;20054;-81
2021/12/01 00:18:53;;;;;;;11.05;3.78;;;;;;;;;;4246706;27;20082;-80
2021/12/01 00:20:54;;;;;;;12.75;3.70;;;;;;;;;;4229549;28;20506;-80
2021/12/01 00:22:56;;;;;;;9.43;3.88;;;;;;;;;;4245398;27;20503;-79
2021/12/01 00:24:57;;;;;;;11.70;3.95;;;;;;;;;;4230566;27;20095;-80
2021/12/01 00:26:58;;;;;;;13.93;4.68;;;;;;;;;;4229855;28;20427;-81
2021/12/01 00:28:59;;;;;;;12.20;4.15;;;;;;;;;;4229605;28;20067;-80
2021/12/01 00:31:00;;;;;;;10.80;4.32;;;;;;;;;;4234290;27;20093;-80
2021/12/01 00:33:02;;;;;;;11.77;4.70;;;;;;;;;;4246284;27;20039;-80
2021/12/01 00:35:06;;;;;;;17.30;5.28;;;;;;;;;;4247390;27;20119;-81
2021/12/01 00:37:07;;;;;;;15.65;5.60;;;;;;;;;;4246866;27;20062;-80
2021/12/01 00:39:08;;;;;;;14.20;4.80;;;;;;;;;;4247111;27;20100;-80
2021/12/01 00:41:10;;;;;;;16.40;5.53;;;;;;;;;;4247763;27;20092;-80
2021/12/01 00:43:18;;;;;;;14.18;5.90;;;;;;;;;;4246289;27;20059;-79
2021/12/01 00:45:22;;;;;;;17.85;6.22;;;;;;;;;;4248009;27;20099;-80
2021/12/01 00:47:31;;;;;;;25.75;6.55;;;;;;;;;;4246508;27;20054;-81
2021/12/01 00:49:34;;;;;;;21.42;6.28;;;;;;;;;;4247700;27;20529;-80
2021/12/01 00:51:35;;;;;;;23.20;6.20;;;;;;;;;;4246797;28;20073;-80
2021/12/01 00:53:37;;;;;;;21.42;6.85;;;;;;;;;;4246023;27;20055;-81
2021/12/01 00:55:40;;;;;;;20.02;7.30;;;;;;;;;;4228923;28;20048;-81
2021/12/01 00:57:41;;;;;;;16.75;6.30;;;;;;;;;;4246203;28;20050;-81
2021/12/01 00:59:42;;;;;;;18.80;7.32;;;;;;;;;;4245835;28;20078;-81
2021/12/01 01:01:44;;;;;;;19.05;7.28;;;;;;;;;;4237159;28;20036;-81
2021/12/01 01:03:45;;;;;;;14.80;6.60;;;;;;;;;;4229949;28;20044;-81
2021/12/01 01:05:46;;;;;;;19.67;7.13;;;;;;;;;;4212699;28;20063;-80
2021/12/01 01:07:47;;;;;;;17.33;7.10;;;;;;;;;;4229221;28;20050;-81
2021/12/01 01:09:49;;;;;;;17.85;7.45;;;;;;;;;;4212334;28;20082;-82
2021/12/01 01:16:29;;;;;;;17.60;6.82;;;;;;;;;;4228964;28;20495;-81
2021/12/01 01:18:33;;;;;;;16.45;6.55;;;;;;;;;;4229467;28;20152;-81
2021/12/01 01:20:35;;;;;;;17.83;6.85;;;;;;;;;;4229555;28;20058;-80
2021/12/01 01:22:37;;;;;;;15.18;6.95;;;;;;;;;;4228804;28;20583;-80
2021/12/01 01:24:38;;;;;;;13.15;5.93;;;;;;;;;;4229890;28;20043;-80
2021/12/01 01:26:39;;;;;;;20.65;6.78;;;;;;;;;;4229534;28;20043;-80
2021/12/01 01:28:41;;;;;;;15.35;6.15;;;;;;;;;;4235824;28;20051;-80
2021/12/01 01:30:42;;;;;;;15.70;5.57;;;;;;;;;;4245832;28;20452;-79
2021/12/01 01:32:43;;;;;;;17.45;5.82;;;;;;;;;;4232595;28;20035;-79
2021/12/01 01:34:44;;;;;;;21.90;5.60;;;;;;;;;;4227780;28;20046;-79
2021/12/01 01:36:45;;;;;;;13.93;5.55;;;;;;;;;;4263829;27;20043;-80
2021/12/01 01:38:46;;;;;;;13.18;5.53;;;;;;;;;;4212296;28;20518;-80
2021/12/01 01:40:48;;;;;;;12.20;5.35;;;;;;;;;;4228986;28;20051;-80
2021/12/01 01:42:49;;;;;;;13.63;5.80;;;;;;;;;;4230076;28;20066;-80
2021/12/01 01:44:50;;;;;;;11.52;4.72;;;;;;;;;;4263713;27;20088;-80
2021/12/01 01:46:51;;;;;;;12.35;5.15;;;;;;;;;;4246074;28;20043;-80
2021/12/01 01:48:56;;;;;;;12.25;5.10;;;;;;;;;;4264297;27;20038;-81
2021/12/01 01:50:59;;;;;;;10.82;5.38;;;;;;;;;;4235817;28;20031;-81
2021/12/01 01:53:00;;;;;;;13.27;4.57;;;;;;;;;;4228757;28;20056;-81
2021/12/01 01:55:01;;;;;;;11.18;4.07;;;;;;;;;;4228733;28;20044;-81
2021/12/01 01:57:02;;;;;;;18.13;4.93;;;;;;;;;;4260149;27;20043;-81
2021/12/01 01:59:03;;;;;;;16.98;5.38;;;;;;;;;;4245778;28;20096;-80
2021/12/01 02:01:08;;;;;;;11.95;4.15;;;;;;;;;;4228789;28;20617;-81
2021/12/01 02:03:11;;;;;;;9.35;3.97;;;;;;;;;;4264630;27;20039;-81
2021/12/01 02:05:12;;;;;;;12.57;3.58;;;;;;;;;;4247319;27;20490;-81
2021/12/01 02:07:13;;;;;;;10.13;3.40;;;;;;;;;;4244804;27;20047;-81
2021/12/01 02:09:15;;;;;;;7.70;3.10;;;;;;;;;;4214974;28;20051;-81
2021/12/01 02:11:17;;;;;;;11.23;3.15;;;;;;;;;;4214251;28;20048;-82
2021/12/01 02:13:19;;;;;;;4.78;2.65;;;;;;;;;;4214478;28;20499;-81
2021/12/01 02:15:20;;;;;;;5.80;2.53;;;;;;;;;;4233648;27;20411;-81
2021/12/01 02:17:21;;;;;;;3.83;2.22;;;;;;;;;;4248163;27;20079;-81
2021/12/01 02:19:22;;;;;;;6.50;2.15;;;;;;;;;;4248432;27;20482;-81
2021/12/01 02:21:28;;;;;;;11.23;2.28;;;;;;;;;;4248252;27;20059;-81
2021/12/01 02:23:29;;;;;;;9.88;1.75;;;;;;;;;;4247918;27;20043;-81
2021/12/01 02:25:31;;;;;;;5.50;1.77;;;;;;;;;;4248146;27;20472;-82
2021/12/01 02:27:32;;;;;;;4.10;1.60;;;;;;;;;;4238046;27;20044;-81
2021/12/01 02:29:33;;;;;;;7.28;1.60;;;;;;;;;;4213637;28;20059;-82
2021/12/01 02:31:36;;;;;;;5.63;1.40;;;;;;;;;;4213943;28;20510;-81
2021/12/01 02:33:37;;;;;;;11.90;1.38;;;;;;;;;;4231387;28;20106;-81
2021/12/01 02:35:38;;;;;;;7.00;1.40;;;;;;;;;;4249410;27;20051;-82
2021/12/01 02:37:41;;;;;;;4.63;1.10;;;;;;;;;;4231612;28;20052;-82
2021/12/01 02:39:42;;;;;;;2.33;0.90;;;;;;;;;;4231640;28;20078;-81
2021/12/01 02:41:45;;;;;;;5.10;0.70;;;;;;;;;;4265657;27;20095;-81
2021/12/01 02:43:47;;;;;;;2.80;1.00;;;;;;;;;;4246810;27;20047;-83
2021/12/01 02:45:50;;;;;;;3.67;0.68;;;;;;;;;;4237961;28;20055;-81
2021/12/01 02:47:51;;;;;;;1.27;0.40;;;;;;;;;;4237732;28;20094;-81
2021/12/01 02:49:54;;;;;;;2.30;0.82;;;;;;;;;;4235986;28;20047;-81
2021/12/01 02:51:56;;;;;;;3.20;0.70;;;;;;;;;;4215053;28;20040;-81
2021/12/01 02:53:58;;;;;;;2.33;0.80;;;;;;;;;;4230397;28;20054;-81
2021/12/01 02:56:00;;;;;;;7.97;1.08;;;;;;;;;;4235476;27;20043;-81
2021/12/01 02:58:02;;;;;;;1.55;0.57;;;;;;;;;;4230416;28;20545;-81
2021/12/01 03:00:03;;;;;;;7.65;0.80;;;;;;;;;;4230317;28;20130;-81
2021/12/01 03:02:04;;;;;;;7.28;0.95;;;;;;;;;;4247386;27;20047;-80
2021/12/01 03:04:05;;;;;;;4.15;0.90;;;;;;;;;;4230290;28;20036;-80
2021/12/01 03:06:07;;;;;;;5.13;1.23;;;;;;;;;;4247887;27;20051;-81
2021/12/01 03:08:08;;;;;;;4.82;0.77;;;;;;;;;;4265836;27;20074;-81
2021/12/01 03:10:10;;;;;;;1.70;0.80;;;;;;;;;;4247085;27;20110;-81
2021/12/01 03:12:11;;;;;;;7.35;1.13;;;;;;;;;;4229732;28;20492;-81
2021/12/01 03:14:14;;;;;;;2.10;0.70;;;;;;;;;;4246480;27;20051;-81
2021/12/01 03:16:16;;;;;;;2.65;0.40;;;;;;;;;;4265996;27;20042;-81
2021/12/01 03:18:17;;;;;;;4.32;0.73;;;;;;;;;;4229764;28;20130;-81
2021/12/01 03:20:22;;;;;;;2.17;0.63;;;;;;;;;;4246688;27;20074;-81
2021/12/01 03:22:23;;;;;;;3.58;0.60;;;;;;;;;;4247220;27;20058;-81
2021/12/01 03:24:24;;;;;;;4.10;0.50;;;;;;;;;;4247079;27;20427;-80
2021/12/01 03:26:25;;;;;;;6.72;0.80;;;;;;;;;;4239661;27;20530;-80
2021/12/01 03:28:27;;;;;;;6.60;0.73;;;;;;;;;;4246900;27;20045;-81
2021/12/01 03:30:33;;;;;;;3.10;0.80;;;;;;;;;;4246759;27;20426;-81
2021/12/01 03:32:35;;;;;;;3.80;0.80;;;;;;;;;;4231407;27;20092;-80
2021/12/01 03:34:36;;;;;;;1.88;0.60;;;;;;;;;;4230583;28;20074;-81
2021/12/01 03:36:37;;;;;;;2.45;0.68;;;;;;;;;;4249123;27;20089;-81
2021/12/01 03:38:38;;;;;;;5.25;0.82;;;;;;;;;;4248556;27;20051;-80
2021/12/01 03:40:39;;;;;;;3.70;0.63;;;;;;;;;;4236546;27;20039;-80
2021/12/01 03:42:43;;;;;;;2.40;0.40;;;;;;;;;;4265241;27;20665;-80
2021/12/01 03:44:44;;;;;;;6.07;1.20;;;;;;;;;;4213198;28;20416;-80
2021/12/01 03:46:45;;;;;;;7.28;0.82;;;;;;;;;;4230358;28;20526;-81
2021/12/01 03:48:47;;;;;;;2.67;1.13;;;;;;;;;;4230100;28;20470;-80
2021/12/01 03:50:49;;;;;;;4.53;0.98;;;;;;;;;;4247065;27;20126;-81
2021/12/01 03:52:50;;;;;;;3.10;0.80;;;;;;;;;;4247130;27;20423;-81
2021/12/01 03:54:52;;;;;;;6.00;0.60;;;;;;;;;;4247217;27;20099;-81
2021/12/01 03:56:53;;;;;;;8.32;1.02;;;;;;;;;;4229565;28;20098;-80
2021/12/01 03:58:54;;;;;;;3.58;0.70;;;;;;;;;;4247347;27;20152;-81
2021/12/01 04:00:55;;;;;;;4.47;0.70;;;;;;;;;;4262266;27;20039;-81
2021/12/01 04:02:56;;;;;;;7.55;1.55;;;;;;;;;;4229920;28;20051;-81
2021/12/01 04:04:57;;;;;;;7.72;1.25;;;;;;;;;;4230161;28;20055;-80
2021/12/01 04:06:58;;;;;;;8.57;0.75;;;;;;;;;;4230227;28;20047;-81
2021/12/01 04:08:59;;;;;;;7.28;1.02;;;;;;;;;;4230194;28;20051;-81
2021/12/01 04:11:01;;;;;;;8.60;1.52;;;;;;;;;;4230204;28;20047;-80
2021/12/01 04:13:02;;;;;;;8.55;1.17;;;;;;;;;;4229610;28;20051;-81
2021/12/01 04:15:04;;;;;;;7.85;1.60;;;;;;;;;;4212830;28;20048;-81
2021/12/01 04:17:05;;;;;;;11.73;1.40;;;;;;;;;;4229633;28;20040;-80
2021/12/01 04:19:06;;;;;;;7.22;1.27;;;;;;;;;;4232802;27;20050;-81
2021/12/01 04:21:07;;;;;;;8.02;1.17;;;;;;;;;;4247491;27;20441;-81
2021/12/01 04:23:09;;;;;;;10.20;1.42;;;;;;;;;;4247284;27;20039;-81
2021/12/01 04:25:11;;;;;;;9.27;1.45;;;;;;;;;;4242398;27;20388;-80
2021/12/01 04:27:12;;;;;;;5.95;1.13;;;;;;;;;;4237174;27;20054;-81
2021/12/01 04:29:14;;;;;;;13.30;1.80;;;;;;;;;;4264518;27;20521;-81
2021/12/01 04:31:16;;;;;;;4.05;0.70;;;;;;;;;;4242217;27;20051;-80
2021/12/01 04:33:17;;;;;;;6.38;0.80;;;;;;;;;;4247565;27;20547;-80
2021/12/01 04:35:19;;;;;;;7.78;0.98;;;;;;;;;;4230390;28;20051;-80
2021/12/01 04:37:20;;;;;;;5.65;0.77;;;;;;;;;;4229415;28;20051;-80
2021/12/01 04:39:21;;;;;;;6.20;0.73;;;;;;;;;;4229815;28;20058;-80
2021/12/01 04:41:23;;;;;;;3.25;1.15;;;;;;;;;;4241739;27;20101;-80
2021/12/01 04:43:24;;;;;;;4.60;0.70;;;;;;;;;;4240803;27;20089;-80
2021/12/01 04:45:25;;;;;;;4.38;0.88;;;;;;;;;;4229874;28;20054;-80
2021/12/01 04:47:29;;;;;;;2.40;0.68;;;;;;;;;;4212656;28;20525;-80
2021/12/01 04:49:37;;;;;;;2.67;0.40;;;;;;;;;;4246175;27;20510;-80
2021/12/01 04:51:39;;;;;;;4.43;0.50;;;;;;;;;;4229330;28;20296;-81
2021/12/01 04:53:41;;;;;;;3.38;0.70;;;;;;;;;;4229084;28;20051;-81
2021/12/01 04:55:42;;;;;;;5.80;0.70;;;;;;;;;;4229207;28;20055;-80
2021/12/01 04:57:44;;;;;;;1.80;0.50;;;;;;;;;;4247993;28;20055;-80
2021/12/01 04:59:45;;;;;;;4.93;0.80;;;;;;;;;;4248121;28;20044;-81
2021/12/01 05:01:48;;;;;;;2.25;0.52;;;;;;;;;;4228639;28;20460;-81
2021/12/01 05:03:49;;;;;;;2.05;0.80;;;;;;;;;;4229472;28;20487;-81
2021/12/01 05:05:50;;;;;;;4.35;0.70;;;;;;;;;;4229487;28;20085;-81
2021/12/01 05:07:51;;;;;;;3.10;0.65;;;;;;;;;;4247270;27;20040;-81
2021/12/01 05:09:54;;;;;;;2.80;0.70;;;;;;;;;;4228663;28;20121;-81
2021/12/01 05:11:55;;;;;;;3.13;0.73;;;;;;;;;;4212644;28;20488;-81
2021/12/01 05:13:56;;;;;;;1.90;0.70;;;;;;;;;;4229382;28;20089;-81
2021/12/01 05:15:57;;;;;;;1.02;0.63;;;;;;;;;;4212800;28;20491;-81
2021/12/01 05:17:58;;;;;;;1.63;0.40;;;;;;;;;;4212229;28;20412;-81
2021/12/01 05:19:59;;;;;;;0.65;0.40;;;;;;;;;;4228569;28;20459;-82
2021/12/01 05:22:00;;;;;;;0.47;0.40;;;;;;;;;;4247349;28;20039;-81
2021/12/01 05:24:01;;;;;;;0.77;0.65;;;;;;;;;;4229189;28;20372;-81
2021/12/01 05:26:03;;;;;;;1.05;0.20;;;;;;;;;;4229454;28;20079;-81
2021/12/01 05:28:04;;;;;;;0.30;0.30;;;;;;;;;;4228906;28;20074;-81
2021/12/01 05:30:07;;;;;;;0.20;0.20;;;;;;;;;;4227717;28;20059;-81
2021/12/01 05:32:09;;;;;;;1.40;0.40;;;;;;;;;;4242546;28;20043;-81
2021/12/01 05:34:12;;;;;;;1.67;0.40;;;;;;;;;;4247255;27;20563;-81
2021/12/01 05:36:13;;;;;;;0.73;0.20;;;;;;;;;;4246368;28;20043;-81
2021/12/01 05:38:15;;;;;;;0.17;0.10;;;;;;;;;;4247098;28;20039;-81
2021/12/01 05:40:16;;;;;;;0.30;0.22;;;;;;;;;;4246193;27;20471;-80
2021/12/01 05:42:17;;;;;;;0.98;0.30;;;;;;;;;;4232951;28;20052;-80
2021/12/01 05:44:19;;;;;;;0.25;0.20;;;;;;;;;;4247538;27;20493;-80
2021/12/01 05:46:20;;;;;;;0.20;0.15;;;;;;;;;;4250412;27;20047;-80
2021/12/01 05:48:21;;;;;;;0.43;0.30;;;;;;;;;;4243306;27;20482;-81
2021/12/01 05:50:22;;;;;;;1.10;0.43;;;;;;;;;;4243688;27;20442;-81
2021/12/01 05:52:23;;;;;;;0.35;0.30;;;;;;;;;;4248598;27;20126;-81
2021/12/01 05:54:24;;;;;;;0.52;0.30;;;;;;;;;;4249552;27;20047;-81
2021/12/01 05:56:26;;;;;;;0.60;0.30;;;;;;;;;;4234695;27;20557;-80
2021/12/01 05:58:27;;;;;;;0.75;0.50;;;;;;;;;;4233499;28;20046;-80
2021/12/01 06:00:28;;;;;;;0.47;0.40;;;;;;;;;;4231940;28;20560;-81
2021/12/01 06:02:29;;;;;;;1.33;0.90;;;;;;;;;;4231593;28;20101;-80
2021/12/01 06:04:31;;;;;;;0.63;0.47;;;;;;;;;;4232749;28;20048;-80
2021/12/01 06:06:34;;;;;;;2.15;0.70;;;;;;;;;;4242507;27;20049;-80
2021/12/01 06:08:35;;;;;;;1.27;0.55;;;;;;;;;;4233921;27;20082;-81
2021/12/01 06:10:38;;;;;;;1.25;0.70;;;;;;;;;;4232317;28;20047;-80
2021/12/01 06:12:40;;;;;;;1.25;0.75;;;;;;;;;;4231211;28;20104;-81
2021/12/01 06:14:42;;;;;;;0.73;0.60;;;;;;;;;;4241565;27;20047;-80
2021/12/01 06:16:43;;;;;;;1.85;0.80;;;;;;;;;;4243324;27;20180;-81
2021/12/01 06:18:44;;;;;;;2.63;0.82;;;;;;;;;;4248715;27;20447;-80
2021/12/01 06:20:46;;;;;;;1.67;0.68;;;;;;;;;;4244224;27;20044;-80
2021/12/01 06:22:47;;;;;;;1.08;0.70;;;;;;;;;;4241003;27;20379;-80
2021/12/01 06:24:48;;;;;;;1.33;0.63;;;;;;;;;;4236193;27;20031;-79
2021/12/01 06:26:49;;;;;;;0.98;0.70;;;;;;;;;;4249075;27;20483;-80
2021/12/01 06:28:51;;;;;;;1.23;0.75;;;;;;;;;;4249223;27;20054;-80
2021/12/01 06:30:52;;;;;;;1.05;0.52;;;;;;;;;;4239468;27;20035;-79
2021/12/01 06:32:54;;;;;;;0.77;0.50;;;;;;;;;;4244322;27;20039;-79
2021/12/01 06:34:55;;;;;;;1.85;0.77;;;;;;;;;;4248740;27;20140;-79
2021/12/01 06:36:56;;;;;;;1.10;0.55;;;;;;;;;;4236865;27;20040;-79
2021/12/01 06:38:57;;;;;;;1.40;0.63;;;;;;;;;;4232487;28;20123;-79
2021/12/01 06:40:59;;;;;;;0.77;0.57;;;;;;;;;;4234264;27;20039;-80
2021/12/01 06:43:00;;;;;;;0.80;0.43;;;;;;;;;;4247083;27;20141;-81
2021/12/01 06:45:02;;;;;;;0.57;0.50;;;;;;;;;;4233749;28;20047;-81
2021/12/01 06:47:04;;;;;;;0.88;0.55;;;;;;;;;;4234127;28;20119;-86
2021/12/01 06:49:05;;;;;;;0.82;0.35;;;;;;;;;;4231857;28;20059;-80
2021/12/01 06:51:06;;;;;;;0.57;0.40;;;;;;;;;;4230699;28;20048;-81
2021/12/01 06:53:07;;;;;;;0.50;0.40;;;;;;;;;;4232027;28;20487;-80
2021/12/01 06:55:09;;;;;;;0.38;0.25;;;;;;;;;;4214801;28;20048;-80
2021/12/01 06:57:11;;;;;;;0.95;0.50;;;;;;;;;;4215543;28;20040;-80
2021/12/01 06:59:12;;;;;;;1.08;0.50;;;;;;;;;;4215559;28;20052;-80
2021/12/01 07:01:14;;;;;;;1.85;0.57;;;;;;;;;;4240860;27;20126;-80
2021/12/01 07:03:15;;;;;;;2.70;0.50;;;;;;;;;;4248974;27;20078;-81
2021/12/01 07:05:16;;;;;;;0.55;0.40;;;;;;;;;;4248695;27;20043;-80
2021/12/01 07:07:17;;;;;;;0.52;0.40;;;;;;;;;;4243924;27;20435;-80
2021/12/01 07:09:21;;;;;;;0.98;0.55;;;;;;;;;;4241107;27;20075;-80
2021/12/01 07:11:22;;;;;;;1.70;0.60;;;;;;;;;;4230505;28;20040;-80
2021/12/01 07:13:23;;;;;;;1.50;0.60;;;;;;;;;;4230939;28;20130;-81
2021/12/01 07:15:25;;;;;;;0.63;0.43;;;;;;;;;;4232571;28;20051;-81
2021/12/01 07:17:26;;;;;;;0.82;0.57;;;;;;;;;;4230525;28;20121;-81
2021/12/01 07:19:27;;;;;;;1.27;0.75;;;;;;;;;;4230648;28;20126;-80
2021/12/01 07:21:28;;;;;;;0.63;0.57;;;;;;;;;;4230669;28;20089;-80
2021/12/01 07:23:30;;;;;;;1.10;0.70;;;;;;;;;;4213512;28;20488;-80
2021/12/01 07:25:32;;;;;;;1.13;0.65;;;;;;;;;;4220363;28;20045;-80
2021/12/01 07:27:33;;;;;;;1.33;0.80;;;;;;;;;;4247763;27;20055;-80
2021/12/01 07:29:35;;;;;;;1.98;0.90;;;;;;;;;;4246919;27;20170;-80
2021/12/01 07:31:36;;;;;;;1.83;0.90;;;;;;;;;;4240305;27;20043;-80
2021/12/01 07:33:37;;;;;;;1.05;0.73;;;;;;;;;;4213472;28;20056;-81
2021/12/01 07:35:38;;;;;;;3.30;1.17;;;;;;;;;;4241288;27;20043;-80
2021/12/01 07:37:39;;;;;;;0.82;0.55;;;;;;;;;;4243175;27;20122;-80
2021/12/01 07:39:41;;;;;;;1.58;0.80;;;;;;;;;;4227989;28;20055;-81
2021/12/01 07:41:43;;;;;;;2.38;0.77;;;;;;;;;;4243055;27;20108;-81
2021/12/01 07:43:44;;;;;;;2.75;0.98;;;;;;;;;;4240610;27;20131;-79
2021/12/01 07:45:45;;;;;;;2.20;1.20;;;;;;;;;;4219722;28;20043;-80
2021/12/01 07:47:46;;;;;;;2.05;1.15;;;;;;;;;;4230984;28;20054;-80
2021/12/01 07:49:48;;;;;;;2.83;1.30;;;;;;;;;;4232607;27;20075;-81
2021/12/01 07:51:49;;;;;;;1.85;1.00;;;;;;;;;;4247551;27;20575;-80
2021/12/01 07:53:50;;;;;;;3.67;1.30;;;;;;;;;;4247849;27;20043;-81
2021/12/01 07:55:51;;;;;;;3.80;1.35;;;;;;;;;;4238261;27;20051;-81
2021/12/01 07:57:53;;;;;;;3.88;1.23;;;;;;;;;;4242535;27;20046;-80
2021/12/01 07:59:54;;;;;;;4.72;1.33;;;;;;;;;;4230171;28;20039;-81
2021/12/01 08:01:55;;;;;;;7.18;2.25;;;;;;;;;;4231518;27;20055;-80
2021/12/01 08:03:56;;;;;;;3.03;1.27;;;;;;;;;;4231102;28;20473;-80
2021/12/01 08:05:57;;;;;;;5.07;1.50;;;;;;;;;;4232760;28;20047;-80
2021/12/01 08:07:58;;;;;;;5.05;1.30;;;;;;;;;;4241677;27;20899;-80
2021/12/01 08:10:04;;;;;;;5.85;1.70;;;;;;;;;;4214853;28;20055;-80
2021/12/01 08:12:07;;;;;;;4.82;1.00;;;;;;;;;;4230566;28;20061;-80
2021/12/01 08:14:11;;;;;;;3.25;1.30;;;;;;;;;;4232422;28;20073;-80
2021/12/01 08:16:12;;;;;;;4.50;1.63;;;;;;;;;;4250556;27;20050;-81
2021/12/01 08:18:17;;;;;;;4.40;1.20;;;;;;;;;;4248533;27;20122;-80
2021/12/01 08:20:18;;;;;;;4.55;1.35;;;;;;;;;;4247248;27;20488;-81
2021/12/01 08:22:22;;;;;;;1.98;1.20;;;;;;;;;;4248316;27;20079;-81
2021/12/01 08:24:23;;;;;;;1.63;0.82;;;;;;;;;;4248703;27;20042;-81
2021/12/01 08:26:27;;;;;;;2.88;1.05;;;;;;;;;;4240876;27;20078;-79
2021/12/01 08:28:28;;;;;;;2.83;1.15;;;;;;;;;;4247661;27;20051;-80
2021/12/01 08:30:29;;;;;;;5.15;1.88;;;;;;;;;;4234732;27;20132;-80
2021/12/01 08:32:32;;;;;;;1.67;1.10;;;;;;;;;;4231531;28;20419;-81
2021/12/01 08:34:33;;;;;;;2.85;1.40;;;;;;;;;;4236482;27;20080;-81
2021/12/01 08:36:34;;;;;;;7.60;1.13;;;;;;;;;;4247144;27;20154;-82
2021/12/01 08:38:39;;;;;;;6.75;1.30;;;;;;;;;;4247689;27;20042;-80
2021/12/01 08:40:40;;;;;;;2.95;1.33;;;;;;;;;;4248785;27;20039;-81
2021/12/01 08:42:42;;;;;;;2.53;1.23;;;;;;;;;;4247026;27;20047;-81
2021/12/01 08:44:45;;;;;;;3.63;1.20;;;;;;;;;;4213492;28;20048;-80
2021/12/01 08:46:46;;;;;;;2.53;1.17;;;;;;;;;;4230660;28;20051;-80
2021/12/01 08:48:47;;;;;;;3.00;0.82;;;;;;;;;;4231118;28;20044;-80
2021/12/01 08:50:48;;;;;;;3.45;0.60;;;;;;;;;;4231063;28;20058;-81
2021/12/01 08:52:49;;;;;;;3.78;0.70;;;;;;;;;;4229792;28;20130;-80
2021/12/01 08:54:50;;;;;;;1.52;0.50;;;;;;;;;;4229624;28;20626;-80
2021/12/01 08:56:54;;;;;;;2.35;0.50;;;;;;;;;;4213020;28;20044;-80
2021/12/01 08:58:55;;;;;;;4.70;0.70;;;;;;;;;;4230252;28;20109;-79
2021/12/01 09:00:57;;;;;;;8.35;1.10;;;;;;;;;;4230318;28;20505;-81
2021/12/01 09:02:58;;;;;;;7.32;0.77;;;;;;;;;;4212444;28;20571;-80
2021/12/01 09:05:00;;;;;;;7.10;1.00;;;;;;;;;;4212912;28;20048;-80
2021/12/01 09:07:02;;;;;;;4.07;0.82;;;;;;;;;;4229720;28;20051;-80
2021/12/01 09:09:03;;;;;;;5.53;0.70;;;;;;;;;;4230244;28;20050;-80
2021/12/01 09:11:05;;;;;;;3.92;0.52;;;;;;;;;;4229199;28;20080;-80
2021/12/01 09:13:07;;;;;;;11.05;0.90;;;;;;;;;;4233709;28;20036;-80
2021/12/01 09:15:08;;;;;;;1.40;0.50;;;;;;;;;;4248770;27;20514;-80
2021/12/01 09:17:10;;;;;;;5.70;0.82;;;;;;;;;;4251067;27;20047;-80
2021/12/01 09:19:11;;;;;;;4.90;0.63;;;;;;;;;;4233150;28;20400;-80
2021/12/01 09:21:13;;;;;;;3.35;0.60;;;;;;;;;;4249791;27;20092;-80
2021/12/01 09:23:14;;;;;;;2.17;0.47;;;;;;;;;;4249777;27;20047;-80
2021/12/01 09:25:15;;;;;;;5.10;0.70;;;;;;;;;;4232774;28;20063;-80
2021/12/01 09:27:17;;;;;;;15.25;2.53;;;;;;;;;;4232691;28;20044;-81
2021/12/01 09:29:18;;;;;;;6.55;0.93;;;;;;;;;;4249471;27;20043;-81
2021/12/01 09:31:20;;;;;;;8.02;0.50;;;;;;;;;;4250416;27;20047;-80
2021/12/01 09:33:21;;;;;;;5.45;0.88;;;;;;;;;;4234527;27;20044;-80
2021/12/01 09:35:22;;;;;;;5.97;0.60;;;;;;;;;;4232572;28;20107;-81
2021/12/01 09:37:24;;;;;;;5.85;0.65;;;;;;;;;;4215987;28;20416;-80
2021/12/01 09:39:25;;;;;;;4.20;0.45;;;;;;;;;;4233886;28;20055;-80
2021/12/01 09:41:29;;;;;;;3.38;0.85;;;;;;;;;;4234259;28;20071;-80
2021/12/01 09:43:31;;;;;;;5.90;0.88;;;;;;;;;;4232532;27;20593;-80
2021/12/01 09:45:32;;;;;;;5.22;1.02;;;;;;;;;;4233152;28;20054;-80
2021/12/01 09:47:33;;;;;;;4.75;0.73;;;;;;;;;;4233147;28;20058;-79
2021/12/01 09:49:35;;;;;;;5.72;0.57;;;;;;;;;;4232365;28;20052;-80
2021/12/01 09:51:36;;;;;;;6.35;0.60;;;;;;;;;;4233677;28;20043;-80
2021/12/01 09:53:37;;;;;;;5.50;0.50;;;;;;;;;;4216752;28;20044;-80
2021/12/01 09:55:40;;;;;;;5.68;0.70;;;;;;;;;;4233242;27;20219;-80
2021/12/01 09:57:59;;;;;;;5.38;0.82;;;;;;;;;;4232696;28;20056;-79
2021/12/01 10:00:00;;;;;;;3.70;0.52;;;;;;;;;;4233491;28;20043;-79
2021/12/01 10:02:01;;;;;;;3.20;0.70;;;;;;;;;;4233607;27;20070;-79
2021/12/01 10:04:02;;;;;;;3.35;0.65;;;;;;;;;;4237174;28;20103;-80
2021/12/01 10:06:09;;;;;;;7.25;0.80;;;;;;;;;;4219822;28;20427;-78
2021/12/01 10:08:19;;;;;;;4.63;0.70;;;;;;;;;;4237522;27;20062;-79
2021/12/01 10:10:20;;;;;;;5.43;0.93;;;;;;;;;;4238954;28;20044;-80
2021/12/01 10:12:22;;;;;;;4.95;0.95;;;;;;;;;;4233081;28;20054;-80
2021/12/01 10:14:24;;;;;;;7.18;1.20;;;;;;;;;;4246034;27;20043;-79
2021/12/01 10:16:26;;;;;;;9.15;1.33;;;;;;;;;;4249941;27;20043;-80
2021/12/01 10:18:29;;;;;;;9.68;0.75;;;;;;;;;;4250717;27;20126;-81
2021/12/01 10:20:30;;;;;;;6.68;1.08;;;;;;;;;;4234282;27;20059;-81
2021/12/01 10:22:31;;;;;;;12.25;1.15;;;;;;;;;;4232714;28;20083;-79
2021/12/01 10:24:35;;;;;;;13.20;1.25;;;;;;;;;;4232514;28;20063;-79
2021/12/01 10:26:41;;;;;;;11.75;1.13;;;;;;;;;;4232198;27;20048;-79
2021/12/01 10:28:44;;;;;;;11.07;1.05;;;;;;;;;;4237715;27;20059;-81
2021/12/01 10:30:46;;;;;;;7.05;1.00;;;;;;;;;;4247935;27;20054;-80
2021/12/01 10:33:05;;;;;;;10.25;2.03;;;;;;;;;;4257287;27;20040;-80
2021/12/01 10:35:06;;;;;;;5.93;1.08;;;;;;;;;;4232395;28;20071;-80
2021/12/01 10:37:12;;;;;;;7.95;1.60;;;;;;;;;;4232125;28;20044;-81
2021/12/01 10:39:14;;;;;;;13.13;1.20;;;;;;;;;;4251231;27;20125;-80
2021/12/01 10:41:16;;;;;;;10.25;0.85;;;;;;;;;;4246301;27;20043;-80
2021/12/01 10:43:18;;;;;;;10.07;1.00;;;;;;;;;;4239810;27;20052;-80
2021/12/01 10:45:21;;;;;;;5.75;0.75;;;;;;;;;;4245511;27;20168;-80
2021/12/01 10:47:22;;;;;;;11.27;1.80;;;;;;;;;;4247903;27;20039;-80
2021/12/01 10:49:40;;;;;;;5.57;0.65;;;;;;;;;;4248596;27;20043;-80
2021/12/01 10:51:43;;;;;;;9.63;1.02;;;;;;;;;;4264337;27;20047;-81
2021/12/01 10:53:55;;;;;;;3.75;0.50;;;;;;;;;;4226979;28;20047;-81
2021/12/01 10:56:03;;;;;;;12.65;1.50;;;;;;;;;;4244112;27;20043;-81
2021/12/01 10:58:06;;;;;;;12.18;2.22;;;;;;;;;;4244925;27;20058;-81
2021/12/01 11:00:26;;;;;;;13.65;1.02;;;;;;;;;;4228026;28;20282;-81
2021/12/01 11:02:34;;;;;;;4.15;1.13;;;;;;;;;;4253630;27;20486;-80
2021/12/01 11:04:42;;;;;;;6.65;0.75;;;;;;;;;;4237001;27;20047;-80
2021/12/01 11:06:44;;;;;;;10.20;1.15;;;;;;;;;;4247488;27;20044;-82
2021/12/01 11:08:48;;;;;;;4.38;0.85;;;;;;;;;;4266177;27;20066;-82
2021/12/01 11:10:52;;;;;;;9.30;0.95;;;;;;;;;;4244369;27;20042;-82
2021/12/01 11:12:54;;;;;;;4.63;1.00;;;;;;;;;;4214149;28;20040;-81
2021/12/01 11:14:56;;;;;;;7.95;1.27;;;;;;;;;;4234673;27;20087;-81
2021/12/01 11:16:57;;;;;;;5.32;0.98;;;;;;;;;;4238461;27;20041;-81
2021/12/01 11:18:59;;;;;;;3.72;0.50;;;;;;;;;;4236902;27;20050;-81
2021/12/01 11:21:02;;;;;;;6.20;1.25;;;;;;;;;;4246745;27;20518;-81
2021/12/01 11:23:22;;;;;;;3.05;0.82;;;;;;;;;;4243404;27;20058;-81
2021/12/01 11:25:25;;;;;;;9.32;1.02;;;;;;;;;;4246996;27;20071;-82
2021/12/01 11:27:26;;;;;;;11.57;1.70;;;;;;;;;;4243242;27;20125;-81
2021/12/01 11:29:28;;;;;;;7.35;1.08;;;;;;;;;;4265255;27;20042;-81
2021/12/01 11:31:45;;;;;;;8.30;1.00;;;;;;;;;;4246931;27;20502;-81
2021/12/01 11:33:47;;;;;;;7.18;1.08;;;;;;;;;;4247470;27;20047;-81
2021/12/01 11:36:08;;;;;;;10.68;1.83;;;;;;;;;;4247311;27;20147;-81
2021/12/01 11:38:10;;;;;;;10.13;1.65;;;;;;;;;;4246974;27;20114;-81
2021/12/01 11:40:11;;;;;;;8.50;2.28;;;;;;;;;;4246743;27;20064;-82
2021/12/01 11:42:12;;;;;;;11.75;1.70;;;;;;;;;;4256092;27;20050;-83
2021/12/01 11:44:15;;;;;;;12.57;1.95;;;;;;;;;;4266300;27;20097;-82
2021/12/01 11:46:18;;;;;;;11.27;1.65;;;;;;;;;;4245754;27;20438;-83
2021/12/01 11:48:23;;;;;;;15.20;1.70;;;;;;;;;;4265397;27;20085;-81
2021/12/01 11:50:27;;;;;;;11.77;1.48;;;;;;;;;;4247059;27;20563;-81
2021/12/01 11:52:34;;;;;;;11.43;1.73;;;;;;;;;;4265188;27;20098;-81
2021/12/01 11:54:42;;;;;;;7.90;1.55;;;;;;;;;;4246042;27;20505;-80
2021/12/01 11:56:52;;;;;;;11.85;2.00;;;;;;;;;;4246049;27;20039;-81
2021/12/01 11:58:56;;;;;;;13.35;1.75;;;;;;;;;;4229246;28;20052;-81
2021/12/01 12:00:57;;;;;;;9.27;1.92;;;;;;;;;;4229857;28;20047;-81
2021/12/01 12:03:18;;;;;;;16.75;2.03;;;;;;;;;;4246822;27;20435;-81
2021/12/01 12:05:21;;;;;;;8.85;1.90;;;;;;;;;;4246412;27;20042;-80
2021/12/01 12:07:32;;;;;;;15.48;2.03;;;;;;;;;;4241903;27;20035;-81
2021/12/01 12:09:34;;;;;;;9.85;2.05;;;;;;;;;;4235883;27;20046;-80
2021/12/01 12:11:36;;;;;;;10.38;1.58;;;;;;;;;;4265763;27;20053;-81
2021/12/01 12:13:57;;;;;;;12.52;1.80;;;;;;;;;;4246503;27;20051;-80
2021/12/01 12:16:01;;;;;;;10.70;2.58;;;;;;;;;;4233660;27;20036;-80